Airfield :







YOU CAN JOIN US ON...

 
LOGIN :

Register | Disclaimer

   EN    FR    IT 

 









Legend :    VFR   Marginal VFR   IFR   Intensive IFR   Very Intensive IFR
Visi :
Ceiling :
>= 8 km
>= 3000ft
5 to 8 km
1000 to 3000 ft
1500m to 5 km
500 to 1000 ft
800 to 1500m
200 to 500 ft
< 800m
< 200 ft
Symbols :   Thunderstorms  Fog  Heavy snow  Heavy precipitations  Wind > 20 kt






- Airport Elevation : 215 ft
- IATA code : MSS


KMSS - Massena International Richards Field

CURRENT METAR :
  • 102053Z AUTO 31009KT 10SM FEW047 SCT055 OVC070 01/M05 A2984 RMK AO2 SLP109 T00061050 53041

EXPIRED METARs :
  • 101953Z AUTO 31009KT 10SM BKN042 OVC055 02/M03 A2979 RMK AO2 PRESRR SLP091 T00221028
  • 101853Z AUTO 27009G18KT 10SM FEW044 OVC065 04/M04 A2974 RMK AO2 PK WND 27027/1820 SLP074 T00391044

TAF KMSS
Valid from the 10 at 18:00 until the 11 at 18:00 UTC


101746Z 1018/1118 26016G26KT P6SM BKN035 OVC050
FM102100 27014G21KT P6SM BKN045
FM110200 29011KT P6SM SCT070
FM110900 VRB04KT P6SM FEW250
FM111500 20009KT P6SM SCT060



MET'MAP, your aeronautical weather chart ! - Copyright ORBIFLY December 2007 - Disclaimer

ORBIFLY MET'MAP TEAM :

Programming & Development : Alexandra Zaïnal
Concept & original design : Baudouin d'Aumeries
Assistance for programming : Marc-Olivier Méhu
Technical & hardware support : Manuel Goepfert

Contact : metmap@orbifly.com




SOURCES & CREDITS :

   NOAA